Terminal Aerodrome Forecast
Issued by NWS

Home | Current Version | Previous Version | Text Only | Print | Product List | Glossary On
Versions: 1 2 3 4 5 6 7 8 9 10 11 12 13 14 15 16 17
000
FTUS43 KICT 301124
TAFCNU
TAF
KCNU 301124Z 3012/3112 21008KT P6SM VCSH BKN130
     FM301600 27011KT P6SM SCT150
     FM301900 33015G22KT P6SM SCT200
     FM310000 34011KT P6SM SKC=

USA.gov is the U.S. government's official web portal to all federal, state and local government web resources and services.